sensor_id;sensor_type;location;lat;lon;timestamp;pressure;altitude;pressure_sealevel;temperature;humidity
57068;BME280;43391;47.448;18.904;2022-07-17T00:00:20;100326.94;;;18.00;45.89
57068;BME280;43391;47.448;18.904;2022-07-17T00:02:45;100329.75;;;17.97;46.22
57068;BME280;43391;47.448;18.904;2022-07-17T00:05:13;100340.34;;;17.96;46.15
57068;BME280;43391;47.448;18.904;2022-07-17T00:07:39;100338.69;;;17.95;46.28
57068;BME280;43391;47.448;18.904;2022-07-17T00:10:07;100334.38;;;17.93;46.86
57068;BME280;43391;47.448;18.904;2022-07-17T00:12:36;100343.31;;;17.91;47.40
57068;BME280;43391;47.448;18.904;2022-07-17T00:15:02;100344.88;;;17.93;47.86
57068;BME280;43391;47.448;18.904;2022-07-17T00:17:27;100350.88;;;17.96;47.84
57068;BME280;43391;47.448;18.904;2022-07-17T00:19:52;100354.16;;;17.99;47.22
57068;BME280;43391;47.448;18.904;2022-07-17T00:22:35;100350.56;;;18.00;47.53
57068;BME280;43391;47.448;18.904;2022-07-17T00:25:01;100351.91;;;18.06;46.93
57068;BME280;43391;47.448;18.904;2022-07-17T00:27:27;100346.56;;;18.08;47.30
57068;BME280;43391;47.448;18.904;2022-07-17T00:29:52;100352.03;;;18.04;47.65
57068;BME280;43391;47.448;18.904;2022-07-17T00:32:20;100357.59;;;18.00;47.67
57068;BME280;43391;47.448;18.904;2022-07-17T00:34:50;100357.94;;;17.95;48.07
57068;BME280;43391;47.448;18.904;2022-07-17T00:37:16;100363.81;;;17.86;48.09
57068;BME280;43391;47.448;18.904;2022-07-17T00:39:42;100360.75;;;17.79;48.15
57068;BME280;43391;47.448;18.904;2022-07-17T00:42:14;100367.28;;;17.73;48.41
57068;BME280;43391;47.448;18.904;2022-07-17T00:45:10;100365.38;;;17.62;48.19
57068;BME280;43391;47.448;18.904;2022-07-17T00:47:59;100364.84;;;17.44;48.50
57068;BME280;43391;47.448;18.904;2022-07-17T00:50:29;100366.94;;;17.39;48.58
57068;BME280;43391;47.448;18.904;2022-07-17T00:52:54;100369.56;;;17.39;48.85
57068;BME280;43391;47.448;18.904;2022-07-17T00:55:20;100374.38;;;17.32;48.91
57068;BME280;43391;47.448;18.904;2022-07-17T00:57:48;100376.47;;;17.27;49.15
57068;BME280;43391;47.448;18.904;2022-07-17T01:00:15;100375.72;;;17.25;49.24
57068;BME280;43391;47.448;18.904;2022-07-17T01:02:47;100375.38;;;17.17;49.29
57068;BME280;43391;47.448;18.904;2022-07-17T01:05:14;100381.50;;;17.03;49.50
57068;BME280;43391;47.448;18.904;2022-07-17T01:07:40;100381.06;;;16.96;50.15
57068;BME280;43391;47.448;18.904;2022-07-17T01:10:07;100392.50;;;16.95;50.26
57068;BME280;43391;47.448;18.904;2022-07-17T01:12:33;100383.38;;;16.87;50.55
57068;BME280;43391;47.448;18.904;2022-07-17T01:14:59;100382.59;;;16.85;50.33
57068;BME280;43391;47.448;18.904;2022-07-17T01:17:25;100388.47;;;16.76;50.42
57068;BME280;43391;47.448;18.904;2022-07-17T01:19:50;100388.19;;;16.66;51.06
57068;BME280;43391;47.448;18.904;2022-07-17T01:22:16;100391.03;;;16.63;51.27
57068;BME280;43391;47.448;18.904;2022-07-17T01:24:50;100392.53;;;16.53;51.45
57068;BME280;43391;47.448;18.904;2022-07-17T01:27:15;100389.63;;;16.43;52.01
57068;BME280;43391;47.448;18.904;2022-07-17T01:29:41;100389.84;;;16.40;52.23
57068;BME280;43391;47.448;18.904;2022-07-17T01:32:07;100388.91;;;16.41;52.16
57068;BME280;43391;47.448;18.904;2022-07-17T01:34:32;100387.00;;;16.43;52.43
57068;BME280;43391;47.448;18.904;2022-07-17T01:36:58;100396.84;;;16.39;52.26
57068;BME280;43391;47.448;18.904;2022-07-17T01:39:24;100392.66;;;16.37;52.40
57068;BME280;43391;47.448;18.904;2022-07-17T01:42:16;100393.88;;;16.31;52.66
57068;BME280;43391;47.448;18.904;2022-07-17T01:44:44;100393.13;;;16.29;53.00
57068;BME280;43391;47.448;18.904;2022-07-17T01:47:12;100403.69;;;16.27;52.79
57068;BME280;43391;47.448;18.904;2022-07-17T01:49:42;100402.88;;;16.27;52.91
57068;BME280;43391;47.448;18.904;2022-07-17T01:52:07;100404.84;;;16.23;53.18
57068;BME280;43391;47.448;18.904;2022-07-17T01:54:33;100408.56;;;16.19;53.00
57068;BME280;43391;47.448;18.904;2022-07-17T01:56:58;100410.53;;;16.15;53.23
57068;BME280;43391;47.448;18.904;2022-07-17T01:59:24;100402.94;;;16.11;53.20
57068;BME280;43391;47.448;18.904;2022-07-17T02:01:49;100414.44;;;16.08;53.31
57068;BME280;43391;47.448;18.904;2022-07-17T02:04:26;100409.41;;;16.05;53.25
57068;BME280;43391;47.448;18.904;2022-07-17T02:06:55;100417.63;;;15.99;53.51
57068;BME280;43391;47.448;18.904;2022-07-17T02:09:22;100414.34;;;15.95;53.62
57068;BME280;43391;47.448;18.904;2022-07-17T02:11:47;100419.00;;;15.90;53.47
57068;BME280;43391;47.448;18.904;2022-07-17T02:14:13;100424.69;;;15.82;53.74
57068;BME280;43391;47.448;18.904;2022-07-17T02:16:38;100416.84;;;15.82;53.92
57068;BME280;43391;47.448;18.904;2022-07-17T02:19:04;100431.63;;;15.83;53.76
57068;BME280;43391;47.448;18.904;2022-07-17T02:21:29;100432.66;;;15.80;53.91
57068;BME280;43391;47.448;18.904;2022-07-17T02:23:54;100438.72;;;15.81;53.74
57068;BME280;43391;47.448;18.904;2022-07-17T02:26:26;100446.00;;;15.76;53.76
57068;BME280;43391;47.448;18.904;2022-07-17T02:28:51;100448.47;;;15.63;54.26
57068;BME280;43391;47.448;18.904;2022-07-17T02:31:17;100450.88;;;15.51;54.29
57068;BME280;43391;47.448;18.904;2022-07-17T02:33:42;100444.84;;;15.35;54.97
57068;BME280;43391;47.448;18.904;2022-07-17T02:36:07;100454.91;;;15.26;55.05
57068;BME280;43391;47.448;18.904;2022-07-17T02:38:33;100450.97;;;15.19;55.39
57068;BME280;43391;47.448;18.904;2022-07-17T02:40:59;100454.66;;;15.15;55.80
57068;BME280;43391;47.448;18.904;2022-07-17T02:43:24;100452.41;;;15.09;55.79
57068;BME280;43391;47.448;18.904;2022-07-17T02:45:50;100454.34;;;15.05;56.04
57068;BME280;43391;47.448;18.904;2022-07-17T02:48:33;100454.50;;;15.02;55.86
57068;BME280;43391;47.448;18.904;2022-07-17T02:50:58;100455.53;;;14.99;56.01
57068;BME280;43391;47.448;18.904;2022-07-17T02:53:24;100454.59;;;15.00;55.91
57068;BME280;43391;47.448;18.904;2022-07-17T02:55:49;100459.06;;;14.98;56.13
57068;BME280;43391;47.448;18.904;2022-07-17T02:58:18;100457.38;;;14.97;56.13
57068;BME280;43391;47.448;18.904;2022-07-17T03:00:55;100461.59;;;14.84;56.28
57068;BME280;43391;47.448;18.904;2022-07-17T03:03:21;100463.69;;;14.77;56.81
57068;BME280;43391;47.448;18.904;2022-07-17T03:05:47;100465.56;;;14.75;56.94
57068;BME280;43391;47.448;18.904;2022-07-17T03:08:13;100467.38;;;14.73;56.59
57068;BME280;43391;47.448;18.904;2022-07-17T03:10:40;100461.72;;;14.65;56.92
57068;BME280;43391;47.448;18.904;2022-07-17T03:13:05;100462.66;;;14.64;57.00
57068;BME280;43391;47.448;18.904;2022-07-17T03:15:31;100467.81;;;14.65;56.85
57068;BME280;43391;47.448;18.904;2022-07-17T03:17:56;100462.72;;;14.62;57.48
57068;BME280;43391;47.448;18.904;2022-07-17T03:20:29;100478.41;;;14.62;57.76
57068;BME280;43391;47.448;18.904;2022-07-17T03:22:54;100479.41;;;14.59;57.74
57068;BME280;43391;47.448;18.904;2022-07-17T03:25:19;100485.91;;;14.52;58.33
57068;BME280;43391;47.448;18.904;2022-07-17T03:27:45;100496.34;;;14.52;58.34
57068;BME280;43391;47.448;18.904;2022-07-17T03:30:10;100490.00;;;14.56;58.12
57068;BME280;43391;47.448;18.904;2022-07-17T03:32:35;100498.72;;;14.57;57.93
57068;BME280;43391;47.448;18.904;2022-07-17T03:35:01;100505.78;;;14.55;58.23
57068;BME280;43391;47.448;18.904;2022-07-17T03:37:27;100499.03;;;14.51;58.74
57068;BME280;43391;47.448;18.904;2022-07-17T03:39:53;100502.72;;;14.46;58.84
57068;BME280;43391;47.448;18.904;2022-07-17T03:42:24;100500.97;;;14.47;58.52
57068;BME280;43391;47.448;18.904;2022-07-17T03:44:50;100507.88;;;14.48;58.09
57068;BME280;43391;47.448;18.904;2022-07-17T03:47:15;100507.69;;;14.51;58.72
57068;BME280;43391;47.448;18.904;2022-07-17T03:49:41;100513.63;;;14.55;58.89
57068;BME280;43391;47.448;18.904;2022-07-17T03:52:06;100510.31;;;14.51;59.46
57068;BME280;43391;47.448;18.904;2022-07-17T03:54:32;100513.94;;;14.48;59.49
57068;BME280;43391;47.448;18.904;2022-07-17T03:56:57;100519.25;;;14.47;59.81
57068;BME280;43391;47.448;18.904;2022-07-17T03:59:22;100509.63;;;14.47;59.73
57068;BME280;43391;47.448;18.904;2022-07-17T04:01:48;100518.25;;;14.50;59.77
57068;BME280;43391;47.448;18.904;2022-07-17T04:04:13;100531.06;;;14.54;59.21
57068;BME280;43391;47.448;18.904;2022-07-17T04:06:39;100528.97;;;14.61;58.36
57068;BME280;43391;47.448;18.904;2022-07-17T04:09:04;100530.25;;;14.70;58.15
57068;BME280;43391;47.448;18.904;2022-07-17T04:11:30;100530.81;;;14.77;57.44
57068;BME280;43391;47.448;18.904;2022-07-17T04:13:55;100534.69;;;14.85;57.22
57068;BME280;43391;47.448;18.904;2022-07-17T04:16:21;100531.81;;;14.90;56.50
57068;BME280;43391;47.448;18.904;2022-07-17T04:18:56;100539.84;;;15.03;56.27
57068;BME280;43391;47.448;18.904;2022-07-17T04:21:21;100536.00;;;15.10;55.54
57068;BME280;43391;47.448;18.904;2022-07-17T04:23:47;100539.19;;;15.16;56.07
57068;BME280;43391;47.448;18.904;2022-07-17T04:26:14;100534.56;;;15.21;56.27
57068;BME280;43391;47.448;18.904;2022-07-17T04:28:45;100534.38;;;15.24;55.31
57068;BME280;43391;47.448;18.904;2022-07-17T04:31:11;100541.13;;;15.28;55.47
57068;BME280;43391;47.448;18.904;2022-07-17T04:33:37;100548.69;;;15.33;55.72
57068;BME280;43391;47.448;18.904;2022-07-17T04:36:02;100546.00;;;15.34;55.52
57068;BME280;43391;47.448;18.904;2022-07-17T04:38:28;100557.16;;;15.38;54.92
57068;BME280;43391;47.448;18.904;2022-07-17T04:40:53;100555.47;;;15.37;55.29
57068;BME280;43391;47.448;18.904;2022-07-17T04:43:19;100553.44;;;15.42;55.70
57068;BME280;43391;47.448;18.904;2022-07-17T04:45:44;100559.00;;;15.52;55.58
57068;BME280;43391;47.448;18.904;2022-07-17T04:48:10;100561.28;;;15.58;55.16
57068;BME280;43391;47.448;18.904;2022-07-17T04:50:35;100566.31;;;15.61;54.28
57068;BME280;43391;47.448;18.904;2022-07-17T04:53:00;100565.22;;;15.65;54.40
57068;BME280;43391;47.448;18.904;2022-07-17T04:55:27;100567.50;;;15.72;53.92
57068;BME280;43391;47.448;18.904;2022-07-17T04:57:52;100575.03;;;15.78;54.03
57068;BME280;43391;47.448;18.904;2022-07-17T05:00:19;100578.22;;;15.83;54.02
57068;BME280;43391;47.448;18.904;2022-07-17T05:02:45;100578.88;;;15.87;53.96
57068;BME280;43391;47.448;18.904;2022-07-17T05:05:11;100573.25;;;15.94;53.64
57068;BME280;43391;47.448;18.904;2022-07-17T05:07:36;100578.13;;;16.01;53.87
57068;BME280;43391;47.448;18.904;2022-07-17T05:10:02;100576.66;;;16.11;53.66
57068;BME280;43391;47.448;18.904;2022-07-17T05:12:29;100579.84;;;16.16;53.19
57068;BME280;43391;47.448;18.904;2022-07-17T05:14:54;100579.47;;;16.23;53.43
57068;BME280;43391;47.448;18.904;2022-07-17T05:17:20;100582.09;;;16.23;52.93
57068;BME280;43391;47.448;18.904;2022-07-17T05:19:45;100584.25;;;16.30;52.86
57068;BME280;43391;47.448;18.904;2022-07-17T05:22:10;100588.41;;;16.34;53.14
57068;BME280;43391;47.448;18.904;2022-07-17T05:24:42;100584.38;;;16.43;53.11
57068;BME280;43391;47.448;18.904;2022-07-17T05:27:08;100588.22;;;16.52;53.46
57068;BME280;43391;47.448;18.904;2022-07-17T05:29:33;100584.41;;;16.58;53.04
57068;BME280;43391;47.448;18.904;2022-07-17T05:31:58;100593.66;;;16.64;52.53
57068;BME280;43391;47.448;18.904;2022-07-17T05:34:24;100585.44;;;16.70;52.62
57068;BME280;43391;47.448;18.904;2022-07-17T05:36:49;100592.09;;;16.76;52.55
57068;BME280;43391;47.448;18.904;2022-07-17T05:39:15;100595.28;;;16.81;52.32
57068;BME280;43391;47.448;18.904;2022-07-17T05:41:40;100597.50;;;16.87;52.11
57068;BME280;43391;47.448;18.904;2022-07-17T05:44:06;100589.09;;;16.96;52.00
57068;BME280;43391;47.448;18.904;2022-07-17T05:46:33;100585.06;;;17.05;52.00
57068;BME280;43391;47.448;18.904;2022-07-17T05:49:02;100588.91;;;17.14;52.00
57068;BME280;43391;47.448;18.904;2022-07-17T05:51:27;100591.59;;;17.27;51.88
57068;BME280;43391;47.448;18.904;2022-07-17T05:53:52;100597.84;;;17.39;51.36
57068;BME280;43391;47.448;18.904;2022-07-17T05:56:27;100592.66;;;17.52;51.11
57068;BME280;43391;47.448;18.904;2022-07-17T05:59:01;100592.00;;;17.63;50.87
57068;BME280;43391;47.448;18.904;2022-07-17T06:01:26;100593.81;;;17.75;50.21
57068;BME280;43391;47.448;18.904;2022-07-17T06:03:52;100592.19;;;17.87;50.62
57068;BME280;43391;47.448;18.904;2022-07-17T06:06:17;100599.88;;;18.03;50.02
57068;BME280;43391;47.448;18.904;2022-07-17T06:08:49;100600.78;;;18.17;49.61
57068;BME280;43391;47.448;18.904;2022-07-17T06:11:14;100605.53;;;18.25;48.13
57068;BME280;43391;47.448;18.904;2022-07-17T06:13:39;100606.59;;;18.35;48.85
57068;BME280;43391;47.448;18.904;2022-07-17T06:16:05;100615.44;;;18.47;47.49
57068;BME280;43391;47.448;18.904;2022-07-17T06:18:30;100615.66;;;18.57;46.92
57068;BME280;43391;47.448;18.904;2022-07-17T06:20:56;100613.13;;;18.68;46.29
57068;BME280;43391;47.448;18.904;2022-07-17T06:23:21;100612.59;;;18.76;46.37
57068;BME280;43391;47.448;18.904;2022-07-17T06:25:46;100617.22;;;18.85;46.69
57068;BME280;43391;47.448;18.904;2022-07-17T06:28:12;100615.53;;;18.84;46.25
57068;BME280;43391;47.448;18.904;2022-07-17T06:30:37;100614.69;;;18.97;45.80
57068;BME280;43391;47.448;18.904;2022-07-17T06:33:03;100615.19;;;19.02;44.83
57068;BME280;43391;47.448;18.904;2022-07-17T06:35:28;100615.31;;;19.14;45.44
57068;BME280;43391;47.448;18.904;2022-07-17T06:37:58;100620.78;;;19.23;44.83
57068;BME280;43391;47.448;18.904;2022-07-17T06:40:24;100616.31;;;19.37;44.38
57068;BME280;43391;47.448;18.904;2022-07-17T06:42:49;100618.38;;;19.45;44.20
57068;BME280;43391;47.448;18.904;2022-07-17T06:45:15;100619.97;;;19.47;42.73
57068;BME280;43391;47.448;18.904;2022-07-17T06:47:40;100618.91;;;19.50;42.69
57068;BME280;43391;47.448;18.904;2022-07-17T06:50:06;100619.81;;;19.62;43.16
57068;BME280;43391;47.448;18.904;2022-07-17T06:52:31;100616.41;;;19.73;42.96
57068;BME280;43391;47.448;18.904;2022-07-17T06:54:57;100620.75;;;19.85;42.02
57068;BME280;43391;47.448;18.904;2022-07-17T06:57:22;100615.63;;;19.95;41.59
57068;BME280;43391;47.448;18.904;2022-07-17T06:59:48;100617.91;;;20.13;41.00
57068;BME280;43391;47.448;18.904;2022-07-17T07:02:13;100623.91;;;20.15;38.87
57068;BME280;43391;47.448;18.904;2022-07-17T07:04:44;100619.63;;;20.37;39.80
57068;BME280;43391;47.448;18.904;2022-07-17T07:07:10;100610.66;;;20.51;38.54
57068;BME280;43391;47.448;18.904;2022-07-17T07:09:36;100616.44;;;20.56;39.08
57068;BME280;43391;47.448;18.904;2022-07-17T07:12:01;100622.94;;;20.63;37.50
57068;BME280;43391;47.448;18.904;2022-07-17T07:14:27;100621.00;;;20.77;37.96
57068;BME280;43391;47.448;18.904;2022-07-17T07:16:52;100621.78;;;20.90;36.41
57068;BME280;43391;47.448;18.904;2022-07-17T07:19:17;100613.38;;;20.96;34.82
57068;BME280;43391;47.448;18.904;2022-07-17T07:21:43;100615.78;;;21.00;35.10
57068;BME280;43391;47.448;18.904;2022-07-17T07:24:08;100620.22;;;20.99;35.13
57068;BME280;43391;47.448;18.904;2022-07-17T07:26:38;100625.22;;;20.91;33.81
57068;BME280;43391;47.448;18.904;2022-07-17T07:29:03;100625.84;;;20.94;34.74
57068;BME280;43391;47.448;18.904;2022-07-17T07:31:28;100634.13;;;20.90;33.25
57068;BME280;43391;47.448;18.904;2022-07-17T07:33:54;100625.59;;;20.97;34.53
57068;BME280;43391;47.448;18.904;2022-07-17T07:36:19;100627.16;;;21.11;32.79
57068;BME280;43391;47.448;18.904;2022-07-17T07:38:47;100622.59;;;21.25;32.85
57068;BME280;43391;47.448;18.904;2022-07-17T07:41:13;100626.63;;;21.41;32.28
57068;BME280;43391;47.448;18.904;2022-07-17T07:43:38;100623.13;;;21.51;33.27
57068;BME280;43391;47.448;18.904;2022-07-17T07:46:04;100617.22;;;21.59;33.09
57068;BME280;43391;47.448;18.904;2022-07-17T07:48:32;100625.59;;;21.64;32.86
57068;BME280;43391;47.448;18.904;2022-07-17T07:51:04;100624.28;;;21.70;32.50
57068;BME280;43391;47.448;18.904;2022-07-17T07:53:29;100622.53;;;21.71;32.54
57068;BME280;43391;47.448;18.904;2022-07-17T07:55:54;100619.94;;;21.81;34.03
57068;BME280;43391;47.448;18.904;2022-07-17T07:58:22;100629.56;;;21.82;33.46
57068;BME280;43391;47.448;18.904;2022-07-17T08:00:51;100623.91;;;21.86;33.46
57068;BME280;43391;47.448;18.904;2022-07-17T08:03:16;100623.22;;;21.73;32.55
57068;BME280;43391;47.448;18.904;2022-07-17T08:05:42;100626.91;;;21.70;33.31
57068;BME280;43391;47.448;18.904;2022-07-17T08:08:08;100629.19;;;21.86;33.18
57068;BME280;43391;47.448;18.904;2022-07-17T08:10:44;100631.69;;;21.88;32.86
57068;BME280;43391;47.448;18.904;2022-07-17T08:13:09;100621.44;;;21.95;32.42
57068;BME280;43391;47.448;18.904;2022-07-17T08:15:35;100635.41;;;21.85;32.39
57068;BME280;43391;47.448;18.904;2022-07-17T08:18:01;100627.13;;;21.90;32.96
57068;BME280;43391;47.448;18.904;2022-07-17T08:20:27;100630.41;;;22.03;32.94
57068;BME280;43391;47.448;18.904;2022-07-17T08:22:52;100636.94;;;22.21;32.21
57068;BME280;43391;47.448;18.904;2022-07-17T08:25:18;100636.31;;;22.28;31.09
57068;BME280;43391;47.448;18.904;2022-07-17T08:27:43;100640.81;;;22.38;31.44
57068;BME280;43391;47.448;18.904;2022-07-17T08:30:11;100641.59;;;22.28;31.03
57068;BME280;43391;47.448;18.904;2022-07-17T08:32:37;100639.16;;;22.37;31.96
57068;BME280;43391;47.448;18.904;2022-07-17T08:35:03;100644.03;;;22.41;31.05
57068;BME280;43391;47.448;18.904;2022-07-17T08:37:29;100640.31;;;22.44;31.04
57068;BME280;43391;47.448;18.904;2022-07-17T08:39:56;100640.75;;;22.49;31.46
57068;BME280;43391;47.448;18.904;2022-07-17T08:42:31;100635.84;;;22.66;31.04
57068;BME280;43391;47.448;18.904;2022-07-17T08:44:57;100643.19;;;22.83;31.06
57068;BME280;43391;47.448;18.904;2022-07-17T08:47:22;100638.81;;;23.04;31.07
57068;BME280;43391;47.448;18.904;2022-07-17T08:49:48;100631.75;;;23.14;30.02
57068;BME280;43391;47.448;18.904;2022-07-17T08:52:14;100644.19;;;23.23;30.50
57068;BME280;43391;47.448;18.904;2022-07-17T08:54:57;100645.44;;;23.29;30.64
57068;BME280;43391;47.448;18.904;2022-07-17T08:57:23;100636.88;;;23.47;31.04
57068;BME280;43391;47.448;18.904;2022-07-17T08:59:48;100628.50;;;23.42;30.44
57068;BME280;43391;47.448;18.904;2022-07-17T09:02:14;100644.28;;;23.53;30.65
57068;BME280;43391;47.448;18.904;2022-07-17T09:04:39;100632.00;;;23.62;31.29
57068;BME280;43391;47.448;18.904;2022-07-17T09:07:05;100631.31;;;23.80;32.13
57068;BME280;43391;47.448;18.904;2022-07-17T09:09:33;100625.03;;;23.81;30.61
57068;BME280;43391;47.448;18.904;2022-07-17T09:11:59;100619.75;;;23.71;30.73
57068;BME280;43391;47.448;18.904;2022-07-17T09:14:38;100629.91;;;23.66;29.81
57068;BME280;43391;47.448;18.904;2022-07-17T09:17:06;100626.44;;;23.95;30.71
57068;BME280;43391;47.448;18.904;2022-07-17T09:19:35;100623.09;;;24.12;31.28
57068;BME280;43391;47.448;18.904;2022-07-17T09:24:42;100626.59;;;24.23;29.26
57068;BME280;43391;47.448;18.904;2022-07-17T09:27:08;100626.56;;;24.33;28.80
57068;BME280;43391;47.448;18.904;2022-07-17T09:29:35;100623.22;;;24.31;27.60
57068;BME280;43391;47.448;18.904;2022-07-17T09:32:41;100630.47;;;24.38;28.40
57068;BME280;43391;47.448;18.904;2022-07-17T09:35:09;100621.06;;;24.54;27.94
57068;BME280;43391;47.448;18.904;2022-07-17T09:37:36;100612.56;;;24.50;27.94
57068;BME280;43391;47.448;18.904;2022-07-17T09:40:08;100620.72;;;24.29;28.18
57068;BME280;43391;47.448;18.904;2022-07-17T09:42:34;100609.97;;;24.31;28.95
57068;BME280;43391;47.448;18.904;2022-07-17T09:45:08;100597.25;;;24.34;28.14
57068;BME280;43391;47.448;18.904;2022-07-17T09:47:38;100608.44;;;24.28;27.68
57068;BME280;43391;47.448;18.904;2022-07-17T09:50:08;100608.88;;;24.13;27.43
57068;BME280;43391;47.448;18.904;2022-07-17T09:52:35;100607.03;;;23.94;28.08
57068;BME280;43391;47.448;18.904;2022-07-17T09:55:03;100618.63;;;24.03;28.32
57068;BME280;43391;47.448;18.904;2022-07-17T09:57:31;100612.06;;;24.17;28.76
57068;BME280;43391;47.448;18.904;2022-07-17T10:00:03;100611.22;;;24.26;29.36
57068;BME280;43391;47.448;18.904;2022-07-17T10:02:31;100602.94;;;24.39;27.42
57068;BME280;43391;47.448;18.904;2022-07-17T10:04:57;100603.63;;;24.51;26.96
57068;BME280;43391;47.448;18.904;2022-07-17T10:07:23;100615.31;;;24.59;27.46
57068;BME280;43391;47.448;18.904;2022-07-17T10:09:49;100609.28;;;24.66;28.11
57068;BME280;43391;47.448;18.904;2022-07-17T10:12:15;100618.09;;;24.67;27.09
57068;BME280;43391;47.448;18.904;2022-07-17T10:14:53;100613.06;;;24.74;27.83
57068;BME280;43391;47.448;18.904;2022-07-17T10:17:21;100613.56;;;24.87;27.74
57068;BME280;43391;47.448;18.904;2022-07-17T10:19:57;100607.38;;;24.97;26.38
57068;BME280;43391;47.448;18.904;2022-07-17T10:22:26;100608.06;;;24.99;26.86
57068;BME280;43391;47.448;18.904;2022-07-17T10:24:56;100610.38;;;24.84;27.10
57068;BME280;43391;47.448;18.904;2022-07-17T10:27:26;100599.63;;;24.85;27.25
57068;BME280;43391;47.448;18.904;2022-07-17T10:30:09;100591.94;;;24.82;26.79
57068;BME280;43391;47.448;18.904;2022-07-17T10:32:36;100604.06;;;24.94;27.09
57068;BME280;43391;47.448;18.904;2022-07-17T10:35:06;100611.38;;;24.83;27.26
57068;BME280;43391;47.448;18.904;2022-07-17T10:43:01;100594.19;;;25.33;25.70
57068;BME280;43391;47.448;18.904;2022-07-17T10:45:35;100598.78;;;25.31;25.28
57068;BME280;43391;47.448;18.904;2022-07-17T10:48:14;100589.38;;;25.37;26.30
57068;BME280;43391;47.448;18.904;2022-07-17T10:50:46;100594.28;;;25.59;27.71
57068;BME280;43391;47.448;18.904;2022-07-17T10:55:48;100586.25;;;25.69;24.29
57068;BME280;43391;47.448;18.904;2022-07-17T10:58:16;100579.09;;;25.70;24.43
57068;BME280;43391;47.448;18.904;2022-07-17T11:00:41;100585.91;;;25.72;25.23
57068;BME280;43391;47.448;18.904;2022-07-17T11:03:11;100587.00;;;25.80;25.20
57068;BME280;43391;47.448;18.904;2022-07-17T11:05:37;100585.72;;;25.84;24.64
57068;BME280;43391;47.448;18.904;2022-07-17T11:08:03;100577.66;;;26.02;25.64
57068;BME280;43391;47.448;18.904;2022-07-17T11:10:35;100576.28;;;26.16;26.21
57068;BME280;43391;47.448;18.904;2022-07-17T11:13:10;100564.13;;;26.32;24.72
57068;BME280;43391;47.448;18.904;2022-07-17T11:15:45;100562.63;;;26.11;24.30
57068;BME280;43391;47.448;18.904;2022-07-17T11:18:29;100574.78;;;26.13;24.99
57068;BME280;43391;47.448;18.904;2022-07-17T11:21:00;100570.41;;;26.31;24.50
57068;BME280;43391;47.448;18.904;2022-07-17T11:23:28;100563.03;;;26.51;24.61
57068;BME280;43391;47.448;18.904;2022-07-17T11:28:31;100565.25;;;26.29;22.15
57068;BME280;43391;47.448;18.904;2022-07-17T11:30:59;100558.59;;;26.33;21.79
57068;BME280;43391;47.448;18.904;2022-07-17T11:33:24;100566.66;;;26.42;22.46
57068;BME280;43391;47.448;18.904;2022-07-17T11:35:50;100566.34;;;26.45;22.98
57068;BME280;43391;47.448;18.904;2022-07-17T11:38:27;100568.38;;;26.51;22.98
57068;BME280;43391;47.448;18.904;2022-07-17T11:40:53;100558.25;;;26.63;23.14
57068;BME280;43391;47.448;18.904;2022-07-17T11:43:19;100550.25;;;26.63;23.39
57068;BME280;43391;47.448;18.904;2022-07-17T11:45:44;100546.94;;;26.61;22.65
57068;BME280;43391;47.448;18.904;2022-07-17T11:48:10;100545.84;;;26.72;22.39
57068;BME280;43391;47.448;18.904;2022-07-17T11:50:36;100542.78;;;26.58;22.81
57068;BME280;43391;47.448;18.904;2022-07-17T11:53:04;100546.78;;;26.62;23.10
57068;BME280;43391;47.448;18.904;2022-07-17T11:55:37;100550.59;;;26.60;22.73
57068;BME280;43391;47.448;18.904;2022-07-17T11:58:03;100539.66;;;26.71;22.94
57068;BME280;43391;47.448;18.904;2022-07-17T12:00:28;100530.72;;;26.80;23.29
57068;BME280;43391;47.448;18.904;2022-07-17T12:03:02;100543.44;;;26.95;22.94
57068;BME280;43391;47.448;18.904;2022-07-17T12:05:28;100545.59;;;27.00;21.24
57068;BME280;43391;47.448;18.904;2022-07-17T12:07:54;100546.03;;;26.87;21.08
57068;BME280;43391;47.448;18.904;2022-07-17T12:10:30;100545.41;;;26.93;20.39
57068;BME280;43391;47.448;18.904;2022-07-17T12:18:01;100511.31;;;27.05;21.89
57068;BME280;43391;47.448;18.904;2022-07-17T12:20:40;100526.81;;;27.10;22.46
57068;BME280;43391;47.448;18.904;2022-07-17T12:23:05;100527.81;;;27.00;21.76
57068;BME280;43391;47.448;18.904;2022-07-17T12:25:31;100523.63;;;27.06;23.29
57068;BME280;43391;47.448;18.904;2022-07-17T12:27:57;100519.00;;;27.16;22.30
57068;BME280;43391;47.448;18.904;2022-07-17T12:30:22;100518.19;;;27.16;22.93
57068;BME280;43391;47.448;18.904;2022-07-17T12:32:47;100522.00;;;27.22;22.42
57068;BME280;43391;47.448;18.904;2022-07-17T12:35:14;100517.69;;;27.37;22.42
57068;BME280;43391;47.448;18.904;2022-07-17T12:37:40;100513.34;;;27.44;22.14
57068;BME280;43391;47.448;18.904;2022-07-17T12:40:07;100500.53;;;27.40;22.23
57068;BME280;43391;47.448;18.904;2022-07-17T12:42:33;100509.34;;;27.32;22.82
57068;BME280;43391;47.448;18.904;2022-07-17T12:44:58;100510.03;;;27.42;21.68
57068;BME280;43391;47.448;18.904;2022-07-17T12:47:23;100507.38;;;27.51;22.13
57068;BME280;43391;47.448;18.904;2022-07-17T12:49:49;100506.19;;;27.45;22.17
57068;BME280;43391;47.448;18.904;2022-07-17T12:52:14;100495.34;;;27.55;21.93
57068;BME280;43391;47.448;18.904;2022-07-17T12:54:40;100498.19;;;27.53;21.19
57068;BME280;43391;47.448;18.904;2022-07-17T12:57:05;100503.19;;;27.40;21.68
57068;BME280;43391;47.448;18.904;2022-07-17T12:59:32;100510.03;;;27.34;21.33